sensor_id;sensor_type;location;lat;lon;timestamp;temperature;humidity
67572;SHT31;54397;47.506;19.158;2022-07-05T00:01:44;27.97;49.00
67572;SHT31;54397;47.506;19.158;2022-07-05T00:05:06;27.96;49.70
67572;SHT31;54397;47.506;19.158;2022-07-05T00:08:32;27.87;49.65
67572;SHT31;54397;47.506;19.158;2022-07-05T00:11:56;27.90;49.67
67572;SHT31;54397;47.506;19.158;2022-07-05T00:15:18;27.89;50.47
67572;SHT31;54397;47.506;19.158;2022-07-05T00:18:39;27.66;51.13
67572;SHT31;54397;47.506;19.158;2022-07-05T00:22:04;27.49;52.50
67572;SHT31;54397;47.506;19.158;2022-07-05T00:25:28;27.52;52.34
67572;SHT31;54397;47.506;19.158;2022-07-05T00:28:51;27.47;52.21
67572;SHT31;54397;47.506;19.158;2022-07-05T00:32:12;27.35;53.40
67572;SHT31;54397;47.506;19.158;2022-07-05T00:35:37;27.32;53.21
67572;SHT31;54397;47.506;19.158;2022-07-05T00:38:58;27.39;53.03
67572;SHT31;54397;47.506;19.158;2022-07-05T00:42:20;27.46;52.43
67572;SHT31;54397;47.506;19.158;2022-07-05T00:45:47;27.50;52.93
67572;SHT31;54397;47.506;19.158;2022-07-05T00:49:13;27.50;52.88
67572;SHT31;54397;47.506;19.158;2022-07-05T00:52:35;27.38;53.49
67572;SHT31;54397;47.506;19.158;2022-07-05T00:55:59;27.42;53.63
67572;SHT31;54397;47.506;19.158;2022-07-05T00:59:26;27.49;53.34
67572;SHT31;54397;47.506;19.158;2022-07-05T01:02:50;27.38;53.51
67572;SHT31;54397;47.506;19.158;2022-07-05T01:06:13;27.35;53.41
67572;SHT31;54397;47.506;19.158;2022-07-05T01:09:39;27.08;53.94
67572;SHT31;54397;47.506;19.158;2022-07-05T01:13:03;27.04;53.91
67572;SHT31;54397;47.506;19.158;2022-07-05T01:16:24;26.90;54.75
67572;SHT31;54397;47.506;19.158;2022-07-05T01:19:50;27.06;54.10
67572;SHT31;54397;47.506;19.158;2022-07-05T01:23:16;27.26;53.73
67572;SHT31;54397;47.506;19.158;2022-07-05T01:26:39;27.36;53.66
67572;SHT31;54397;47.506;19.158;2022-07-05T01:30:04;27.24;53.80
67572;SHT31;54397;47.506;19.158;2022-07-05T01:33:33;27.26;53.43
67572;SHT31;54397;47.506;19.158;2022-07-05T01:36:57;27.29;53.20
67572;SHT31;54397;47.506;19.158;2022-07-05T01:40:19;27.33;53.14
67572;SHT31;54397;47.506;19.158;2022-07-05T01:43:44;27.36;52.91
67572;SHT31;54397;47.506;19.158;2022-07-05T01:47:07;27.26;53.31
67572;SHT31;54397;47.506;19.158;2022-07-05T01:50:36;27.19;53.54
67572;SHT31;54397;47.506;19.158;2022-07-05T01:54:02;27.19;53.45
67572;SHT31;54397;47.506;19.158;2022-07-05T01:57:26;27.16;53.68
67572;SHT31;54397;47.506;19.158;2022-07-05T02:00:49;27.14;54.01
67572;SHT31;54397;47.506;19.158;2022-07-05T02:04:14;27.01;54.46
67572;SHT31;54397;47.506;19.158;2022-07-05T02:07:49;26.91;54.62
67572;SHT31;54397;47.506;19.158;2022-07-05T02:11:13;26.84;54.82
67572;SHT31;54397;47.506;19.158;2022-07-05T02:14:37;26.87;54.75
67572;SHT31;54397;47.506;19.158;2022-07-05T02:18:02;26.95;53.93
67572;SHT31;54397;47.506;19.158;2022-07-05T02:21:24;27.11;53.58
67572;SHT31;54397;47.506;19.158;2022-07-05T02:24:46;27.14;53.43
67572;SHT31;54397;47.506;19.158;2022-07-05T02:28:08;27.19;53.28
67572;SHT31;54397;47.506;19.158;2022-07-05T02:31:31;27.22;52.90
67572;SHT31;54397;47.506;19.158;2022-07-05T02:35:00;27.25;52.58
67572;SHT31;54397;47.506;19.158;2022-07-05T02:38:21;27.29;52.44
67572;SHT31;54397;47.506;19.158;2022-07-05T02:41:43;27.32;52.13
67572;SHT31;54397;47.506;19.158;2022-07-05T02:45:06;27.35;51.88
67572;SHT31;54397;47.506;19.158;2022-07-05T02:48:33;27.33;51.83
67572;SHT31;54397;47.506;19.158;2022-07-05T02:51:57;27.35;51.74
67572;SHT31;54397;47.506;19.158;2022-07-05T02:55:19;27.41;51.62
67572;SHT31;54397;47.506;19.158;2022-07-05T02:58:41;27.35;51.60
67572;SHT31;54397;47.506;19.158;2022-07-05T03:02:02;27.36;51.69
67572;SHT31;54397;47.506;19.158;2022-07-05T03:05:27;27.41;51.38
67572;SHT31;54397;47.506;19.158;2022-07-05T03:08:51;27.43;51.45
67572;SHT31;54397;47.506;19.158;2022-07-05T03:12:13;27.38;51.72
67572;SHT31;54397;47.506;19.158;2022-07-05T03:15:34;27.32;51.75
67572;SHT31;54397;47.506;19.158;2022-07-05T03:18:58;27.32;52.24
67572;SHT31;54397;47.506;19.158;2022-07-05T03:22:22;27.26;52.53
67572;SHT31;54397;47.506;19.158;2022-07-05T03:25:44;27.25;52.53
67572;SHT31;54397;47.506;19.158;2022-07-05T03:29:06;27.21;52.15
67572;SHT31;54397;47.506;19.158;2022-07-05T03:32:28;27.29;52.18
67572;SHT31;54397;47.506;19.158;2022-07-05T03:35:49;27.33;52.07
67572;SHT31;54397;47.506;19.158;2022-07-05T03:39:14;27.42;51.86
67572;SHT31;54397;47.506;19.158;2022-07-05T03:42:38;27.35;52.05
67572;SHT31;54397;47.506;19.158;2022-07-05T03:46:07;27.41;51.89
67572;SHT31;54397;47.506;19.158;2022-07-05T03:49:32;27.39;52.12
67572;SHT31;54397;47.506;19.158;2022-07-05T03:52:56;27.39;52.16
67572;SHT31;54397;47.506;19.158;2022-07-05T03:56:17;27.39;51.95
67572;SHT31;54397;47.506;19.158;2022-07-05T03:59:41;27.36;52.46
67572;SHT31;54397;47.506;19.158;2022-07-05T04:03:04;27.33;52.15
67572;SHT31;54397;47.506;19.158;2022-07-05T04:06:28;27.32;52.46
67572;SHT31;54397;47.506;19.158;2022-07-05T04:09:50;27.35;52.26
67572;SHT31;54397;47.506;19.158;2022-07-05T04:13:12;27.39;52.11
67572;SHT31;54397;47.506;19.158;2022-07-05T04:16:37;27.36;52.21
67572;SHT31;54397;47.506;19.158;2022-07-05T04:20:01;27.36;52.30
67572;SHT31;54397;47.506;19.158;2022-07-05T04:23:26;27.38;52.05
67572;SHT31;54397;47.506;19.158;2022-07-05T04:26:47;27.38;51.92
67572;SHT31;54397;47.506;19.158;2022-07-05T04:30:10;27.43;51.44
67572;SHT31;54397;47.506;19.158;2022-07-05T04:33:31;27.25;51.13
67572;SHT31;54397;47.506;19.158;2022-07-05T04:36:55;27.18;51.75
67572;SHT31;54397;47.506;19.158;2022-07-05T04:40:19;27.25;51.67
67572;SHT31;54397;47.506;19.158;2022-07-05T04:43:41;27.31;51.59
67572;SHT31;54397;47.506;19.158;2022-07-05T04:47:05;27.33;51.54
67572;SHT31;54397;47.506;19.158;2022-07-05T04:50:27;27.38;51.54
67572;SHT31;54397;47.506;19.158;2022-07-05T04:53:49;27.41;51.42
67572;SHT31;54397;47.506;19.158;2022-07-05T04:57:11;27.35;51.50
67572;SHT31;54397;47.506;19.158;2022-07-05T05:00:35;27.18;52.23
67572;SHT31;54397;47.506;19.158;2022-07-05T05:04:05;27.19;52.19
67572;SHT31;54397;47.506;19.158;2022-07-05T05:07:31;27.14;52.61
67572;SHT31;54397;47.506;19.158;2022-07-05T05:11:02;27.09;52.62
67572;SHT31;54397;47.506;19.158;2022-07-05T05:14:24;27.22;52.25
67572;SHT31;54397;47.506;19.158;2022-07-05T05:17:48;27.29;52.36
67572;SHT31;54397;47.506;19.158;2022-07-05T05:21:13;27.15;52.58
67572;SHT31;54397;47.506;19.158;2022-07-05T05:24:34;27.15;53.20
67572;SHT31;54397;47.506;19.158;2022-07-05T05:27:56;27.22;52.24
67572;SHT31;54397;47.506;19.158;2022-07-05T05:31:21;27.25;52.62
67572;SHT31;54397;47.506;19.158;2022-07-05T05:34:45;27.39;52.79
67572;SHT31;54397;47.506;19.158;2022-07-05T05:38:10;27.42;51.94
67572;SHT31;54397;47.506;19.158;2022-07-05T05:41:31;27.43;52.03
67572;SHT31;54397;47.506;19.158;2022-07-05T05:44:53;27.43;52.22
67572;SHT31;54397;47.506;19.158;2022-07-05T05:48:14;27.45;51.82
67572;SHT31;54397;47.506;19.158;2022-07-05T05:51:38;27.35;52.08
67572;SHT31;54397;47.506;19.158;2022-07-05T05:55:02;27.33;52.58
67572;SHT31;54397;47.506;19.158;2022-07-05T05:58:29;27.31;52.46
67572;SHT31;54397;47.506;19.158;2022-07-05T06:01:50;27.43;52.69
67572;SHT31;54397;47.506;19.158;2022-07-05T06:05:13;27.56;52.72
67572;SHT31;54397;47.506;19.158;2022-07-05T06:08:37;27.56;52.22
67572;SHT31;54397;47.506;19.158;2022-07-05T06:11:59;27.52;51.74
67572;SHT31;54397;47.506;19.158;2022-07-05T06:15:23;27.54;51.53
67572;SHT31;54397;47.506;19.158;2022-07-05T06:18:47;27.47;51.64
67572;SHT31;54397;47.506;19.158;2022-07-05T06:22:14;27.57;51.71
67572;SHT31;54397;47.506;19.158;2022-07-05T06:25:40;27.56;51.04
67572;SHT31;54397;47.506;19.158;2022-07-05T06:29:02;27.57;50.39
67572;SHT31;54397;47.506;19.158;2022-07-05T06:32:26;27.60;50.60
67572;SHT31;54397;47.506;19.158;2022-07-05T06:35:47;27.62;50.94
67572;SHT31;54397;47.506;19.158;2022-07-05T06:39:11;27.49;50.72
67572;SHT31;54397;47.506;19.158;2022-07-05T06:42:38;27.33;50.84
67572;SHT31;54397;47.506;19.158;2022-07-05T06:46:02;27.08;51.56
67572;SHT31;54397;47.506;19.158;2022-07-05T06:49:26;27.01;52.44
67572;SHT31;54397;47.506;19.158;2022-07-05T06:52:50;26.85;52.25
67572;SHT31;54397;47.506;19.158;2022-07-05T06:56:11;26.87;51.91
67572;SHT31;54397;47.506;19.158;2022-07-05T06:59:35;26.94;52.67
67572;SHT31;54397;47.506;19.158;2022-07-05T07:03:18;26.98;51.77
67572;SHT31;54397;47.506;19.158;2022-07-05T07:06:59;27.32;51.29
67572;SHT31;54397;47.506;19.158;2022-07-05T07:10:21;27.24;50.68
67572;SHT31;54397;47.506;19.158;2022-07-05T07:13:49;27.18;51.11
67572;SHT31;54397;47.506;19.158;2022-07-05T07:17:23;27.45;50.50
67572;SHT31;54397;47.506;19.158;2022-07-05T07:20:45;27.60;50.22
67572;SHT31;54397;47.506;19.158;2022-07-05T07:24:09;27.59;50.14
67572;SHT31;54397;47.506;19.158;2022-07-05T07:27:31;27.76;49.37
67572;SHT31;54397;47.506;19.158;2022-07-05T07:30:53;27.97;49.20
67572;SHT31;54397;47.506;19.158;2022-07-05T07:34:15;28.18;47.78
67572;SHT31;54397;47.506;19.158;2022-07-05T07:37:42;28.38;48.70
67572;SHT31;54397;47.506;19.158;2022-07-05T07:41:03;28.49;48.05
67572;SHT31;54397;47.506;19.158;2022-07-05T07:44:25;28.56;47.68
67572;SHT31;54397;47.506;19.158;2022-07-05T07:47:47;28.70;46.84
67572;SHT31;54397;47.506;19.158;2022-07-05T07:51:08;28.82;46.17
67572;SHT31;54397;47.506;19.158;2022-07-05T07:54:35;28.72;46.23
67572;SHT31;54397;47.506;19.158;2022-07-05T07:57:59;28.73;46.03
67572;SHT31;54397;47.506;19.158;2022-07-05T08:01:21;28.70;45.77
67572;SHT31;54397;47.506;19.158;2022-07-05T08:04:45;28.76;45.86
67572;SHT31;54397;47.506;19.158;2022-07-05T08:08:07;29.04;45.62
67572;SHT31;54397;47.506;19.158;2022-07-05T08:11:31;29.17;45.25
67572;SHT31;54397;47.506;19.158;2022-07-05T08:14:53;29.20;45.20
67572;SHT31;54397;47.506;19.158;2022-07-05T08:18:14;29.03;45.15
67572;SHT31;54397;47.506;19.158;2022-07-05T08:21:55;28.87;45.92
67572;SHT31;54397;47.506;19.158;2022-07-05T08:25:16;28.87;46.43
67572;SHT31;54397;47.506;19.158;2022-07-05T08:28:38;28.86;45.85
67572;SHT31;54397;47.506;19.158;2022-07-05T08:32:21;28.90;45.97
67572;SHT31;54397;47.506;19.158;2022-07-05T08:35:48;28.92;46.59
67572;SHT31;54397;47.506;19.158;2022-07-05T08:39:12;29.00;45.95
67572;SHT31;54397;47.506;19.158;2022-07-05T08:42:34;29.13;45.72
67572;SHT31;54397;47.506;19.158;2022-07-05T08:46:05;29.55;45.36
67572;SHT31;54397;47.506;19.158;2022-07-05T08:49:30;29.73;45.14
67572;SHT31;54397;47.506;19.158;2022-07-05T08:52:55;29.27;45.42
67572;SHT31;54397;47.506;19.158;2022-07-05T08:56:19;29.39;45.42
67572;SHT31;54397;47.506;19.158;2022-07-05T08:59:59;29.32;45.97
67572;SHT31;54397;47.506;19.158;2022-07-05T09:03:24;29.13;47.11
67572;SHT31;54397;47.506;19.158;2022-07-05T09:06:47;28.99;47.28
67572;SHT31;54397;47.506;19.158;2022-07-05T09:10:16;29.14;47.35
67572;SHT31;54397;47.506;19.158;2022-07-05T09:13:40;29.14;47.26
67572;SHT31;54397;47.506;19.158;2022-07-05T09:17:25;29.28;46.94
67572;SHT31;54397;47.506;19.158;2022-07-05T09:21:11;29.79;45.87
67572;SHT31;54397;47.506;19.158;2022-07-05T09:24:45;29.20;46.19
67572;SHT31;54397;47.506;19.158;2022-07-05T09:28:11;28.94;47.06
67572;SHT31;54397;47.506;19.158;2022-07-05T09:31:41;28.87;47.87
67572;SHT31;54397;47.506;19.158;2022-07-05T09:35:19;28.90;47.37
67572;SHT31;54397;47.506;19.158;2022-07-05T09:38:49;28.94;47.63
67572;SHT31;54397;47.506;19.158;2022-07-05T09:42:20;28.48;49.66
67572;SHT31;54397;47.506;19.158;2022-07-05T09:49:25;28.60;49.87
67572;SHT31;54397;47.506;19.158;2022-07-05T09:52:47;28.29;51.77
67572;SHT31;54397;47.506;19.158;2022-07-05T09:56:11;27.97;52.58
67572;SHT31;54397;47.506;19.158;2022-07-05T09:59:36;27.63;53.15
67572;SHT31;54397;47.506;19.158;2022-07-05T10:02:58;26.99;55.33
67572;SHT31;54397;47.506;19.158;2022-07-05T10:06:25;26.47;56.15
67572;SHT31;54397;47.506;19.158;2022-07-05T10:09:47;26.22;56.84
67572;SHT31;54397;47.506;19.158;2022-07-05T10:13:17;26.02;57.42
67572;SHT31;54397;47.506;19.158;2022-07-05T10:16:39;25.85;58.12
67572;SHT31;54397;47.506;19.158;2022-07-05T10:20:02;25.84;57.48
67572;SHT31;54397;47.506;19.158;2022-07-05T10:23:28;25.62;57.98
67572;SHT31;54397;47.506;19.158;2022-07-05T10:26:54;26.05;57.40
67572;SHT31;54397;47.506;19.158;2022-07-05T10:30:19;26.47;56.47
67572;SHT31;54397;47.506;19.158;2022-07-05T10:33:41;26.41;56.24
67572;SHT31;54397;47.506;19.158;2022-07-05T10:37:05;26.26;56.62
67572;SHT31;54397;47.506;19.158;2022-07-05T10:40:30;26.40;56.70
67572;SHT31;54397;47.506;19.158;2022-07-05T10:43:54;26.25;57.61
67572;SHT31;54397;47.506;19.158;2022-07-05T10:47:19;25.50;61.75
67572;SHT31;54397;47.506;19.158;2022-07-05T10:50:46;24.65;68.40
67572;SHT31;54397;47.506;19.158;2022-07-05T10:54:09;23.90;73.04
67572;SHT31;54397;47.506;19.158;2022-07-05T10:57:31;23.86;72.89
67572;SHT31;54397;47.506;19.158;2022-07-05T11:04:36;23.55;74.56
67572;SHT31;54397;47.506;19.158;2022-07-05T11:08:00;23.63;73.66
67572;SHT31;54397;47.506;19.158;2022-07-05T11:11:41;23.04;75.27
67572;SHT31;54397;47.506;19.158;2022-07-05T11:15:25;23.84;72.59
67572;SHT31;54397;47.506;19.158;2022-07-05T11:18:50;24.00;71.52
67572;SHT31;54397;47.506;19.158;2022-07-05T11:22:14;23.45;73.47
67572;SHT31;54397;47.506;19.158;2022-07-05T11:25:47;22.96;74.88
67572;SHT31;54397;47.506;19.158;2022-07-05T11:33:30;24.10;71.47
67572;SHT31;54397;47.506;19.158;2022-07-05T11:40:55;24.44;70.03
67572;SHT31;54397;47.506;19.158;2022-07-05T11:44:24;24.22;70.58
67572;SHT31;54397;47.506;19.158;2022-07-05T11:48:15;24.21;71.16
67572;SHT31;54397;47.506;19.158;2022-07-05T11:51:37;24.28;70.32
67572;SHT31;54397;47.506;19.158;2022-07-05T11:55:01;24.10;71.00
67572;SHT31;54397;47.506;19.158;2022-07-05T11:58:30;23.84;72.65
67572;SHT31;54397;47.506;19.158;2022-07-05T12:01:55;23.51;73.14
67572;SHT31;54397;47.506;19.158;2022-07-05T12:05:19;23.39;74.48
67572;SHT31;54397;47.506;19.158;2022-07-05T12:08:41;23.14;75.13
67572;SHT31;54397;47.506;19.158;2022-07-05T12:12:05;23.18;75.81
67572;SHT31;54397;47.506;19.158;2022-07-05T12:16:02;23.48;76.10
67572;SHT31;54397;47.506;19.158;2022-07-05T12:19:26;23.15;75.50
67572;SHT31;54397;47.506;19.158;2022-07-05T12:22:53;23.28;75.68
67572;SHT31;54397;47.506;19.158;2022-07-05T12:26:18;23.55;76.14
67572;SHT31;54397;47.506;19.158;2022-07-05T12:29:41;23.65;75.77
67572;SHT31;54397;47.506;19.158;2022-07-05T12:33:07;23.46;75.16
67572;SHT31;54397;47.506;19.158;2022-07-05T12:36:30;23.55;75.03
67572;SHT31;54397;47.506;19.158;2022-07-05T12:40:05;23.59;75.73
67572;SHT31;54397;47.506;19.158;2022-07-05T12:43:30;23.67;74.26
67572;SHT31;54397;47.506;19.158;2022-07-05T12:47:03;24.13;71.73
67572;SHT31;54397;47.506;19.158;2022-07-05T12:50:29;24.58;70.49
67572;SHT31;54397;47.506;19.158;2022-07-05T12:54:23;25.02;69.10
67572;SHT31;54397;47.506;19.158;2022-07-05T12:58:04;25.07;68.49
67572;SHT31;54397;47.506;19.158;2022-07-05T13:01:34;24.80;68.69
67572;SHT31;54397;47.506;19.158;2022-07-05T13:05:01;24.97;68.60
67572;SHT31;54397;47.506;19.158;2022-07-05T13:08:32;24.85;68.53
67572;SHT31;54397;47.506;19.158;2022-07-05T13:12:17;24.79;68.45
67572;SHT31;54397;47.506;19.158;2022-07-05T13:15:44;24.88;68.17
67572;SHT31;54397;47.506;19.158;2022-07-05T13:19:10;24.75;69.42
67572;SHT31;54397;47.506;19.158;2022-07-05T13:22:36;24.67;68.55
67572;SHT31;54397;47.506;19.158;2022-07-05T13:26:01;24.79;67.83
67572;SHT31;54397;47.506;19.158;2022-07-05T13:29:23;24.89;68.67
67572;SHT31;54397;47.506;19.158;2022-07-05T13:32:47;24.79;68.54
67572;SHT31;54397;47.506;19.158;2022-07-05T13:36:14;24.99;67.53
67572;SHT31;54397;47.506;19.158;2022-07-05T13:39:36;25.02;68.80
67572;SHT31;54397;47.506;19.158;2022-07-05T13:42:59;25.05;67.92
67572;SHT31;54397;47.506;19.158;2022-07-05T13:46:23;25.07;68.10
67572;SHT31;54397;47.506;19.158;2022-07-05T13:49:47;24.90;67.84
67572;SHT31;54397;47.506;19.158;2022-07-05T13:53:12;24.88;67.89
67572;SHT31;54397;47.506;19.158;2022-07-05T13:56:33;24.85;68.78
67572;SHT31;54397;47.506;19.158;2022-07-05T13:59:57;24.68;68.28
67572;SHT31;54397;47.506;19.158;2022-07-05T14:03:19;24.88;67.77
67572;SHT31;54397;47.506;19.158;2022-07-05T14:06:43;25.05;67.82
67572;SHT31;54397;47.506;19.158;2022-07-05T14:10:05;25.19;66.76
67572;SHT31;54397;47.506;19.158;2022-07-05T14:13:27;25.17;67.32
67572;SHT31;54397;47.506;19.158;2022-07-05T14:16:50;25.23;67.22
67572;SHT31;54397;47.506;19.158;2022-07-05T14:20:12;25.06;67.89
67572;SHT31;54397;47.506;19.158;2022-07-05T14:23:35;25.12;66.98
67572;SHT31;54397;47.506;19.158;2022-07-05T14:26:56;25.31;67.38
67572;SHT31;54397;47.506;19.158;2022-07-05T14:30:20;25.17;68.34
67572;SHT31;54397;47.506;19.158;2022-07-05T14:33:46;25.33;67.38
67572;SHT31;54397;47.506;19.158;2022-07-05T14:37:11;25.30;67.01
67572;SHT31;54397;47.506;19.158;2022-07-05T14:40:34;25.31;66.14
67572;SHT31;54397;47.506;19.158;2022-07-05T14:43:58;25.33;66.94
67572;SHT31;54397;47.506;19.158;2022-07-05T14:47:22;25.64;65.64
67572;SHT31;54397;47.506;19.158;2022-07-05T14:50:43;25.35;65.91
67572;SHT31;54397;47.506;19.158;2022-07-05T14:54:08;25.24;66.14
67572;SHT31;54397;47.506;19.158;2022-07-05T14:57:33;25.61;65.05
67572;SHT31;54397;47.506;19.158;2022-07-05T15:00:55;25.93;63.86
67572;SHT31;54397;47.506;19.158;2022-07-05T15:04:19;26.09;63.18
67572;SHT31;54397;47.506;19.158;2022-07-05T15:07:43;26.18;62.14
67572;SHT31;54397;47.506;19.158;2022-07-05T15:11:07;26.16;62.51
67572;SHT31;54397;47.506;19.158;2022-07-05T15:14:31;25.86;62.78
67572;SHT31;54397;47.506;19.158;2022-07-05T15:17:53;25.86;63.48
67572;SHT31;54397;47.506;19.158;2022-07-05T15:21:15;26.03;62.60
67572;SHT31;54397;47.506;19.158;2022-07-05T15:24:39;26.19;62.47
67572;SHT31;54397;47.506;19.158;2022-07-05T15:28:03;26.13;62.82
67572;SHT31;54397;47.506;19.158;2022-07-05T15:31:30;25.91;63.19
67572;SHT31;54397;47.506;19.158;2022-07-05T15:34:55;25.81;64.13
67572;SHT31;54397;47.506;19.158;2022-07-05T15:38:22;25.80;63.99
67572;SHT31;54397;47.506;19.158;2022-07-05T15:41:48;25.35;65.37
67572;SHT31;54397;47.506;19.158;2022-07-05T15:45:10;25.70;65.48
67572;SHT31;54397;47.506;19.158;2022-07-05T15:48:34;25.57;65.27
67572;SHT31;54397;47.506;19.158;2022-07-05T15:51:57;25.78;64.08
67572;SHT31;54397;47.506;19.158;2022-07-05T15:55:19;25.34;64.98
67572;SHT31;54397;47.506;19.158;2022-07-05T15:58:41;25.15;65.48
67572;SHT31;54397;47.506;19.158;2022-07-05T16:02:05;25.44;65.09
67572;SHT31;54397;47.506;19.158;2022-07-05T16:05:27;25.84;63.64
67572;SHT31;54397;47.506;19.158;2022-07-05T16:08:50;26.09;61.98
67572;SHT31;54397;47.506;19.158;2022-07-05T16:12:12;26.13;61.17
67572;SHT31;54397;47.506;19.158;2022-07-05T16:15:33;26.16;61.14
67572;SHT31;54397;47.506;19.158;2022-07-05T16:19:14;26.03;61.19
67572;SHT31;54397;47.506;19.158;2022-07-05T16:22:36;25.84;61.96
67572;SHT31;54397;47.506;19.158;2022-07-05T16:25:58;25.88;61.87
67572;SHT31;54397;47.506;19.158;2022-07-05T16:29:21;25.80;61.62
67572;SHT31;54397;47.506;19.158;2022-07-05T16:32:42;25.57;62.51
67572;SHT31;54397;47.506;19.158;2022-07-05T16:36:13;25.68;62.46
67572;SHT31;54397;47.506;19.158;2022-07-05T16:39:37;25.68;62.29
67572;SHT31;54397;47.506;19.158;2022-07-05T16:42:59;25.57;62.63
67572;SHT31;54397;47.506;19.158;2022-07-05T16:46:28;25.37;63.48
67572;SHT31;54397;47.506;19.158;2022-07-05T16:49:53;25.47;62.71
67572;SHT31;54397;47.506;19.158;2022-07-05T16:53:18;25.64;62.40
67572;SHT31;54397;47.506;19.158;2022-07-05T16:56:46;25.77;62.11
67572;SHT31;54397;47.506;19.158;2022-07-05T17:00:07;25.74;61.90
67572;SHT31;54397;47.506;19.158;2022-07-05T17:03:31;25.74;61.99
67572;SHT31;54397;47.506;19.158;2022-07-05T17:06:56;25.61;62.08
67572;SHT31;54397;47.506;19.158;2022-07-05T17:10:20;25.24;63.11
67572;SHT31;54397;47.506;19.158;2022-07-05T17:13:51;24.75;64.85
67572;SHT31;54397;47.506;19.158;2022-07-05T17:17:15;24.80;65.00
67572;SHT31;54397;47.506;19.158;2022-07-05T17:20:36;24.71;64.31
67572;SHT31;54397;47.506;19.158;2022-07-05T17:24:01;24.89;64.47
67572;SHT31;54397;47.506;19.158;2022-07-05T17:27:25;24.88;64.34
67572;SHT31;54397;47.506;19.158;2022-07-05T17:30:51;24.83;65.58
67572;SHT31;54397;47.506;19.158;2022-07-05T17:34:13;24.76;65.14
67572;SHT31;54397;47.506;19.158;2022-07-05T17:37:37;24.58;66.79
67572;SHT31;54397;47.506;19.158;2022-07-05T17:41:05;24.93;65.04
67572;SHT31;54397;47.506;19.158;2022-07-05T17:44:28;25.33;64.57
67572;SHT31;54397;47.506;19.158;2022-07-05T17:47:50;25.35;64.45
67572;SHT31;54397;47.506;19.158;2022-07-05T17:51:15;25.33;64.09
67572;SHT31;54397;47.506;19.158;2022-07-05T17:55:05;25.31;64.44
67572;SHT31;54397;47.506;19.158;2022-07-05T17:58:26;25.34;64.45
67572;SHT31;54397;47.506;19.158;2022-07-05T18:01:49;25.30;64.36
67572;SHT31;54397;47.506;19.158;2022-07-05T18:05:11;25.17;65.06
67572;SHT31;54397;47.506;19.158;2022-07-05T18:08:35;25.38;64.22
67572;SHT31;54397;47.506;19.158;2022-07-05T18:11:59;25.23;64.70
67572;SHT31;54397;47.506;19.158;2022-07-05T18:15:21;25.24;64.11
67572;SHT31;54397;47.506;19.158;2022-07-05T18:18:43;24.89;64.94
67572;SHT31;54397;47.506;19.158;2022-07-05T18:22:07;24.78;65.36
67572;SHT31;54397;47.506;19.158;2022-07-05T18:25:29;24.90;64.72
67572;SHT31;54397;47.506;19.158;2022-07-05T18:28:53;24.85;66.77
67572;SHT31;54397;47.506;19.158;2022-07-05T18:32:15;24.96;66.74
67572;SHT31;54397;47.506;19.158;2022-07-05T18:35:36;24.72;66.94
67572;SHT31;54397;47.506;19.158;2022-07-05T18:38:58;24.25;66.52
67572;SHT31;54397;47.506;19.158;2022-07-05T18:42:23;24.45;66.97
67572;SHT31;54397;47.506;19.158;2022-07-05T18:45:45;24.61;66.31
67572;SHT31;54397;47.506;19.158;2022-07-05T18:49:06;24.68;65.98
67572;SHT31;54397;47.506;19.158;2022-07-05T18:52:30;24.51;66.57
67572;SHT31;54397;47.506;19.158;2022-07-05T18:55:54;24.07;67.74
67572;SHT31;54397;47.506;19.158;2022-07-05T18:59:36;23.90;67.99
67572;SHT31;54397;47.506;19.158;2022-07-05T19:03:00;23.67;68.56
67572;SHT31;54397;47.506;19.158;2022-07-05T19:06:25;23.87;67.85
67572;SHT31;54397;47.506;19.158;2022-07-05T19:10:06;23.72;69.03
67572;SHT31;54397;47.506;19.158;2022-07-05T19:13:46;24.25;68.30
67572;SHT31;54397;47.506;19.158;2022-07-05T19:17:12;24.54;67.10
67572;SHT31;54397;47.506;19.158;2022-07-05T19:20:36;24.69;66.28
67572;SHT31;54397;47.506;19.158;2022-07-05T19:24:18;24.44;66.64
67572;SHT31;54397;47.506;19.158;2022-07-05T19:27:40;24.10;68.04
67572;SHT31;54397;47.506;19.158;2022-07-05T19:31:02;24.09;66.50
67572;SHT31;54397;47.506;19.158;2022-07-05T19:34:24;23.86;67.63
67572;SHT31;54397;47.506;19.158;2022-07-05T19:37:48;23.10;69.85
67572;SHT31;54397;47.506;19.158;2022-07-05T19:41:12;23.18;70.91
67572;SHT31;54397;47.506;19.158;2022-07-05T19:44:34;22.63;71.73
67572;SHT31;54397;47.506;19.158;2022-07-05T19:47:58;22.76;71.40
67572;SHT31;54397;47.506;19.158;2022-07-05T19:51:20;22.46;72.96
67572;SHT31;54397;47.506;19.158;2022-07-05T19:54:44;22.77;72.76
67572;SHT31;54397;47.506;19.158;2022-07-05T19:58:08;23.38;69.87
67572;SHT31;54397;47.506;19.158;2022-07-05T20:01:30;23.39;70.30
67572;SHT31;54397;47.506;19.158;2022-07-05T20:04:54;22.96;71.07
67572;SHT31;54397;47.506;19.158;2022-07-05T20:08:16;22.52;72.48
67572;SHT31;54397;47.506;19.158;2022-07-05T20:11:38;22.39;73.84
67572;SHT31;54397;47.506;19.158;2022-07-05T20:15:22;22.57;72.44
67572;SHT31;54397;47.506;19.158;2022-07-05T20:18:43;22.64;72.27
67572;SHT31;54397;47.506;19.158;2022-07-05T20:22:10;22.45;73.77
67572;SHT31;54397;47.506;19.158;2022-07-05T20:25:31;22.11;73.95
67572;SHT31;54397;47.506;19.158;2022-07-05T20:28:56;22.15;74.46
67572;SHT31;54397;47.506;19.158;2022-07-05T20:32:18;22.08;74.54
67572;SHT31;54397;47.506;19.158;2022-07-05T20:35:40;21.67;75.87
67572;SHT31;54397;47.506;19.158;2022-07-05T20:39:04;21.73;76.00
67572;SHT31;54397;47.506;19.158;2022-07-05T20:42:28;21.67;76.36
67572;SHT31;54397;47.506;19.158;2022-07-05T20:45:50;21.83;76.75
67572;SHT31;54397;47.506;19.158;2022-07-05T20:49:11;22.18;75.02
67572;SHT31;54397;47.506;19.158;2022-07-05T20:52:33;22.23;75.01
67572;SHT31;54397;47.506;19.158;2022-07-05T20:56:00;21.95;74.92
67572;SHT31;54397;47.506;19.158;2022-07-05T20:59:21;22.00;75.03
67572;SHT31;54397;47.506;19.158;2022-07-05T21:02:44;22.09;75.24
67572;SHT31;54397;47.506;19.158;2022-07-05T21:06:06;22.16;74.89
67572;SHT31;54397;47.506;19.158;2022-07-05T21:09:30;21.75;75.17
67572;SHT31;54397;47.506;19.158;2022-07-05T21:12:54;22.21;74.84
67572;SHT31;54397;47.506;19.158;2022-07-05T21:16:16;22.19;73.20
67572;SHT31;54397;47.506;19.158;2022-07-05T21:19:38;22.05;74.41
67572;SHT31;54397;47.506;19.158;2022-07-05T21:23:04;22.40;74.65
67572;SHT31;54397;47.506;19.158;2022-07-05T21:26:26;22.01;73.80
67572;SHT31;54397;47.506;19.158;2022-07-05T21:29:47;21.67;74.80